Hyalite Weather Station

This weather station provides temperature, wind speed, gust or max wind speed, and wind direction at 9982ft near the summit of Flanders Mountain. This data can be used with temperature and precipitation data from the Shower Falls SNOTEL site. If the data has not been updated recently you can view it directly on datagarrison.com

Elevation
9982ft
Jump to table bottom
Date Time Temperature
deg F
RH, % Wind Speed Wind Gust Wind Direction
04/01/19 03:00 61.5 48 0 2 NE - 56
04/01/19 02:00 60.7 44 0 0 NE - 63
04/01/19 01:00 61.2 44 0 0 NE - 63
04/01/19 00:00 61.7 44 0 0 NE - 63
03/31/19 23:00 62.2 44 0 0 NE - 63
03/31/19 22:00 62.8 45 0 0 NE - 63
03/31/19 21:00 62.9 45 0 0 NE - 63
03/31/19 20:00 60.3 50 0 1 NE - 55
03/31/19 19:00 44.7 47 0 1 N - 21
03/31/19 18:00 61.2 42 0 0 N - 1
03/31/19 17:00 58.6 37 0 6 N - 1
03/31/19 16:00 52.4 79 0 2 E - 70
03/31/19 15:00 42.8 86 0 6 E - 94
03/31/19 14:00 35.9 86 1 9 NE - 46
03/31/19 13:00 26.0 75 3 8 NW - 333
03/31/19 12:00 28.1 68 4 9 W - 257
03/31/19 11:00 25.6 63 4 9 SW - 247
03/31/19 10:00 24.6 61 3 7 SW - 232
03/31/19 09:00 24.8 57 3 7 S - 194
03/31/19 08:00 23.5 58 3 6 SW - 227
03/31/19 07:00 23.8 55 5 7 SW - 239
03/31/19 06:00 20.3 71 4 6 SW - 244
03/31/19 05:00 22.5 70 5 6 SW - 219
03/31/19 04:00 21.9 70 6 8 SW - 227
03/31/19 03:00 21.9 67 5 7 SW - 218
03/31/19 02:00 22.7 70 6 8 SW - 213
03/31/19 01:00 22.4 62 3 5 S - 190
03/31/19 00:00 23.8 51 3 5 S - 190
03/30/19 23:00 21.1 67 1 3 N - 11
03/30/19 22:00 21.9 78 3 8 N - 3
03/30/19 21:00 21.7 91 4 7 NE - 27
03/30/19 20:00 20.3 95 2 5 NW - 324
03/30/19 19:00 20.8 95 4 7 W - 260
03/30/19 18:00 22.8 95 5 8 SW - 246
03/30/19 17:00 23.5 95 5 10 W - 251
03/30/19 16:00 23.3 96 6 11 W - 250
03/30/19 15:00 22.9 96 5 9 W - 250
03/30/19 14:00 23.3 96 3 8 W - 275
03/30/19 13:00 22.5 96 2 5 W - 251
03/30/19 12:00 23.7 95 1 4 W - 278
03/30/19 11:00 17.9 94 2 5 W - 253
03/30/19 10:00 18.7 94 1 5 W - 279
03/30/19 09:00 16.6 94 3 7 NW - 317
03/30/19 08:00 12.1 93 3 5 W - 285
03/30/19 07:00 10.6 92 4 7 W - 257
03/30/19 06:00 8.6 92 1 4 W - 282
03/30/19 05:00 8.2 92 3 4 N - 357
03/30/19 04:00 8.8 92 3 6 NE - 31
03/30/19 03:00 8.4 92 5 10 NE - 56
03/30/19 02:00 9.1 92 5 10 E - 81